Auckland International Airport

NZAA | AKL

Auckland , Auckland , New Zealand

Monday, January 20th, 2020 | 08:03

Weather

NZAA 191830Z AUTO 19004KT 9999 SCT005/// 18/17 Q1014 NOSIG

Charts

No Charts Available

Gates

67 Available

Runways

1 Available

Events

No events for this airport


New event